Time;durP1;ratioP1;P1;durP2;ratioP2;P2;SDS_P1;SDS_P2;PMS_P1;PMS_P2;Temp;Humidity;BMP_temperature;BMP_pressure;BME280_temperature;BME280_humidity;BME280_pressure;Samples;Min_cycle;Max_cycle;Signal;HPM_P1;HPM_P2
2021/08/16 00:01:46;;;;;;;10.40;2.30;;;18.80;69.80;;;;;;4985661;28;20481;-75
2021/08/16 00:04:12;;;;;;;7.85;2.10;;;18.80;69.90;;;;;;4990911;28;20030;-74
2021/08/16 00:06:37;;;;;;;6.13;2.00;;;18.80;70.50;;;;;;4988323;28;20058;-74
2021/08/16 00:09:06;;;;;;;5.60;1.63;;;18.80;69.80;;;;;;4989598;28;20039;-75
2021/08/16 00:11:32;;;;;;;5.65;1.83;;;18.90;69.70;;;;;;4987346;28;20034;-74
2021/08/16 00:13:57;;;;;;;5.05;1.73;;;18.80;69.80;;;;;;4984831;28;20092;-75
2021/08/16 00:16:23;;;;;;;8.07;2.47;;;18.90;69.70;;;;;;4988684;28;20389;-76
2021/08/16 00:18:48;;;;;;;6.72;2.20;;;18.90;69.70;;;;;;4988402;28;20034;-75
2021/08/16 00:21:15;;;;;;;6.13;2.10;;;18.90;69.80;;;;;;4990474;28;20385;-75
2021/08/16 00:23:40;;;;;;;9.70;2.40;;;18.90;70.00;;;;;;4983342;28;20547;-75
2021/08/16 00:26:06;;;;;;;8.43;2.63;;;18.90;69.80;;;;;;4988716;28;20038;-75
2021/08/16 00:28:31;;;;;;;7.18;2.33;;;18.90;70.00;;;;;;4992510;28;20022;-75
2021/08/16 00:30:57;;;;;;;6.10;2.40;;;18.90;70.10;;;;;;4990568;28;20393;-74
2021/08/16 00:33:23;;;;;;;5.53;1.77;;;18.90;70.10;;;;;;4990809;28;20188;-75
2021/08/16 00:35:48;;;;;;;5.70;1.80;;;18.90;70.00;;;;;;4984318;28;20026;-75
2021/08/16 00:38:14;;;;;;;5.85;1.83;;;18.90;70.00;;;;;;4990712;28;20034;-74
2021/08/16 00:40:39;;;;;;;6.80;1.90;;;18.90;69.80;;;;;;4986954;28;20105;-74
2021/08/16 00:43:05;;;;;;;5.93;1.90;;;18.90;69.90;;;;;;4990123;28;20030;-74
2021/08/16 00:45:32;;;;;;;7.05;2.13;;;19.00;70.10;;;;;;4986728;28;20074;-74
2021/08/16 00:47:57;;;;;;;12.80;3.05;;;18.90;70.00;;;;;;4986035;28;20510;-74
2021/08/16 00:50:23;;;;;;;6.85;2.20;;;18.90;70.30;;;;;;4987601;28;20031;-73
2021/08/16 00:52:48;;;;;;;9.38;2.30;;;18.90;70.50;;;;;;4983580;28;20034;-74
2021/08/16 00:55:14;;;;;;;5.47;2.05;;;18.90;70.40;;;;;;4992934;28;20042;-74
2021/08/16 00:57:41;;;;;;;5.90;1.80;;;18.90;70.30;;;;;;4989520;28;20027;-74
2021/08/16 01:00:09;;;;;;;5.15;2.08;;;18.90;70.30;;;;;;4994364;28;20030;-74
2021/08/16 01:02:39;;;;;;;6.60;1.77;;;18.90;70.30;;;;;;4989008;28;20432;-73
2021/08/16 01:05:06;;;;;;;6.97;1.88;;;18.90;70.40;;;;;;4994657;28;20023;-73
2021/08/16 01:07:33;;;;;;;8.48;2.40;;;18.90;70.20;;;;;;4986733;28;20034;-74
2021/08/16 01:09:59;;;;;;;4.78;1.83;;;18.90;70.30;;;;;;4991104;28;20071;-74
2021/08/16 01:12:25;;;;;;;4.82;1.63;;;18.90;70.30;;;;;;4989963;28;20154;-74
2021/08/16 01:14:50;;;;;;;5.70;1.70;;;18.90;70.20;;;;;;4990818;28;20027;-74
2021/08/16 01:17:16;;;;;;;4.80;2.05;;;18.90;70.30;;;;;;4992071;28;20057;-74
2021/08/16 01:19:42;;;;;;;7.28;2.00;;;19.00;70.10;;;;;;4988552;28;20406;-74
2021/08/16 01:22:07;;;;;;;5.63;1.88;;;18.90;70.30;;;;;;4993646;28;20060;-74
2021/08/16 01:24:33;;;;;;;6.45;2.05;;;18.90;70.40;;;;;;4991011;28;20619;-74
2021/08/16 01:27:07;;;;;;;9.52;2.83;;;18.90;70.30;;;;;;4993198;28;20057;-73
2021/08/16 01:29:32;;;;;;;9.98;2.60;;;18.90;70.70;;;;;;4990888;28;20420;-72
2021/08/16 01:32:02;;;;;;;8.15;2.30;;;18.90;70.70;;;;;;4992921;28;20030;-73
2021/08/16 01:34:29;;;;;;;5.60;1.98;;;18.80;71.00;;;;;;4991106;28;20030;-73
2021/08/16 01:36:55;;;;;;;9.18;2.50;;;18.80;70.80;;;;;;4992452;28;20038;-74
2021/08/16 01:39:21;;;;;;;7.45;2.15;;;18.80;71.00;;;;;;4992910;28;20424;-74
2021/08/16 01:41:48;;;;;;;7.70;2.08;;;18.70;71.10;;;;;;4986688;28;20101;-74
2021/08/16 01:44:16;;;;;;;8.32;2.33;;;18.80;71.20;;;;;;4993207;28;20440;-74
2021/08/16 01:46:42;;;;;;;6.95;2.28;;;18.70;71.20;;;;;;4988756;28;20500;-74
2021/08/16 01:49:10;;;;;;;8.85;2.40;;;18.60;71.50;;;;;;4992565;28;20397;-76
2021/08/16 01:51:36;;;;;;;8.48;2.20;;;18.70;71.70;;;;;;4985748;28;20030;-76
2021/08/16 01:54:07;;;;;;;9.63;2.80;;;18.60;71.80;;;;;;4990724;28;20393;-76
2021/08/16 01:56:33;;;;;;;10.23;2.40;;;18.60;72.00;;;;;;4992935;28;20122;-75
2021/08/16 01:58:59;;;;;;;7.43;2.33;;;18.60;72.00;;;;;;4992865;28;20101;-75
2021/08/16 02:01:25;;;;;;;12.23;2.50;;;18.60;72.30;;;;;;4992808;28;20422;-76
2021/08/16 02:03:50;;;;;;;10.10;2.90;;;18.50;72.10;;;;;;4981328;28;20113;-76
2021/08/16 02:06:16;;;;;;;7.47;2.30;;;18.50;72.50;;;;;;4984225;28;20121;-75
2021/08/16 02:08:42;;;;;;;6.68;1.92;;;18.50;72.40;;;;;;4986299;28;20053;-73
2021/08/16 02:11:08;;;;;;;9.30;2.58;;;18.50;72.30;;;;;;4992382;28;20030;-73
2021/08/16 02:13:34;;;;;;;7.18;1.92;;;18.50;72.40;;;;;;4991148;28;20026;-76
2021/08/16 02:16:00;;;;;;;7.55;2.55;;;18.50;72.40;;;;;;4992241;28;20100;-75
2021/08/16 02:18:26;;;;;;;7.97;1.95;;;18.50;72.40;;;;;;4989718;28;20038;-75
2021/08/16 02:20:52;;;;;;;8.13;2.40;;;18.50;72.30;;;;;;4990523;28;20042;-74
2021/08/16 02:23:17;;;;;;;8.63;2.38;;;18.40;72.40;;;;;;4992218;28;20058;-74
2021/08/16 02:25:43;;;;;;;5.88;2.05;;;18.40;72.60;;;;;;4986704;28;20389;-74
2021/08/16 02:28:08;;;;;;;9.30;2.60;;;18.40;72.60;;;;;;4989523;28;20030;-74
2021/08/16 02:30:34;;;;;;;8.15;2.13;;;18.40;72.80;;;;;;4990079;28;20030;-75
2021/08/16 02:32:59;;;;;;;6.35;2.35;;;18.40;73.10;;;;;;4990669;28;20030;-75
2021/08/16 02:35:25;;;;;;;7.10;2.10;;;18.30;73.20;;;;;;4990055;28;20027;-75
2021/08/16 02:37:50;;;;;;;6.40;1.75;;;18.30;73.50;;;;;;4993467;28;20061;-74
2021/08/16 02:40:16;;;;;;;7.25;2.25;;;18.30;73.20;;;;;;4996029;28;20019;-76
2021/08/16 02:42:42;;;;;;;11.30;2.88;;;18.30;73.20;;;;;;4991488;28;20039;-75
2021/08/16 02:45:09;;;;;;;6.63;2.45;;;18.30;73.50;;;;;;4985879;28;20085;-75
2021/08/16 02:47:35;;;;;;;9.32;2.58;;;18.30;73.50;;;;;;4984472;28;20536;-75
2021/08/16 02:50:00;;;;;;;11.13;2.92;;;18.30;73.70;;;;;;4990940;28;20023;-73
2021/08/16 02:52:26;;;;;;;6.70;1.95;;;18.30;73.80;;;;;;4987275;28;20080;-75
2021/08/16 02:54:52;;;;;;;8.13;2.10;;;18.20;73.80;;;;;;4990536;28;20370;-75
2021/08/16 02:57:20;;;;;;;7.10;1.90;;;18.30;73.70;;;;;;4989047;28;20035;-74
2021/08/16 02:59:45;;;;;;;7.18;2.03;;;18.30;73.50;;;;;;4991013;28;20034;-74
2021/08/16 03:02:11;;;;;;;7.78;2.40;;;18.30;73.50;;;;;;4990690;28;20337;-73
2021/08/16 03:04:36;;;;;;;7.05;2.17;;;18.30;73.70;;;;;;4988324;28;20030;-73
2021/08/16 03:07:03;;;;;;;6.95;2.50;;;18.30;73.70;;;;;;4990389;28;20119;-74
2021/08/16 03:09:28;;;;;;;10.05;2.47;;;18.30;74.00;;;;;;4986392;28;20026;-74
2021/08/16 03:11:55;;;;;;;5.95;2.00;;;18.20;74.20;;;;;;4991307;28;20511;-73
2021/08/16 03:14:20;;;;;;;8.52;2.40;;;18.20;74.30;;;;;;4989754;28;20062;-73
2021/08/16 03:16:46;;;;;;;5.32;1.90;;;18.20;74.40;;;;;;4990238;28;20513;-74
2021/08/16 03:19:12;;;;;;;9.45;2.50;;;18.20;74.30;;;;;;4989014;28;20553;-73
2021/08/16 03:21:37;;;;;;;6.88;2.22;;;18.30;74.40;;;;;;4991339;28;20130;-74
2021/08/16 03:24:03;;;;;;;4.70;1.80;;;18.30;74.60;;;;;;4990759;28;20019;-74
2021/08/16 03:26:29;;;;;;;5.15;1.83;;;18.30;74.50;;;;;;4988325;28;20030;-73
2021/08/16 03:28:54;;;;;;;10.02;2.15;;;18.30;74.40;;;;;;4991755;28;20485;-74
2021/08/16 03:31:20;;;;;;;7.13;2.00;;;18.20;74.50;;;;;;4985324;28;20032;-74
2021/08/16 03:33:45;;;;;;;10.48;2.65;;;18.20;74.80;;;;;;4982787;28;20407;-73
2021/08/16 03:36:11;;;;;;;6.10;2.20;;;18.20;75.10;;;;;;4990222;28;20386;-73
2021/08/16 03:38:38;;;;;;;8.50;3.03;;;18.20;75.30;;;;;;4989426;28;20034;-74
2021/08/16 03:41:04;;;;;;;7.57;2.35;;;18.20;75.20;;;;;;4989576;28;20640;-74
2021/08/16 03:43:30;;;;;;;6.60;2.50;;;18.20;75.20;;;;;;4991231;28;20049;-73
2021/08/16 03:45:55;;;;;;;7.00;2.00;;;18.20;75.30;;;;;;4990053;28;20121;-74
2021/08/16 03:48:21;;;;;;;10.23;2.75;;;18.20;75.40;;;;;;4981064;28;20044;-74
2021/08/16 03:50:46;;;;;;;7.90;2.40;;;18.20;75.50;;;;;;4989295;28;20027;-74
2021/08/16 03:53:12;;;;;;;6.28;2.15;;;18.20;75.80;;;;;;4989447;28;20030;-73
2021/08/16 03:55:38;;;;;;;6.07;2.05;;;18.20;75.80;;;;;;4990628;28;20023;-74
2021/08/16 03:58:03;;;;;;;9.18;2.33;;;18.20;75.70;;;;;;4988531;28;20027;-73
2021/08/16 04:00:29;;;;;;;8.23;2.50;;;18.20;75.70;;;;;;4989424;28;20812;-73
2021/08/16 04:02:54;;;;;;;6.05;2.00;;;18.20;76.10;;;;;;4990579;28;20022;-73
2021/08/16 04:05:20;;;;;;;7.25;2.13;;;18.20;76.00;;;;;;4990123;28;20030;-73
2021/08/16 04:07:45;;;;;;;6.65;2.15;;;18.20;76.10;;;;;;4983441;28;20394;-73
2021/08/16 04:10:13;;;;;;;5.57;1.88;;;18.20;76.00;;;;;;4979754;28;20027;-73
2021/08/16 04:12:38;;;;;;;4.75;1.70;;;18.20;76.10;;;;;;4986556;28;20114;-73
2021/08/16 04:15:10;;;;;;;4.30;1.80;;;18.20;76.00;;;;;;4978509;28;20550;-72
2021/08/16 04:17:35;;;;;;;5.53;1.98;;;18.20;76.10;;;;;;4988840;28;20048;-73
2021/08/16 04:20:01;;;;;;;9.75;2.60;;;18.20;76.20;;;;;;4987141;28;20027;-73
2021/08/16 04:22:26;;;;;;;7.22;2.22;;;18.20;76.30;;;;;;4989860;28;20030;-74
2021/08/16 04:24:53;;;;;;;6.15;2.00;;;18.30;76.20;;;;;;4988529;28;20034;-73
2021/08/16 04:27:18;;;;;;;7.53;2.20;;;18.30;76.20;;;;;;4986521;28;20415;-75
2021/08/16 04:29:44;;;;;;;7.07;2.33;;;18.30;76.10;;;;;;4994084;28;20027;-73
2021/08/16 04:32:09;;;;;;;6.75;2.70;;;18.30;76.50;;;;;;4983278;28;20038;-73
2021/08/16 04:34:35;;;;;;;9.63;3.13;;;18.30;76.60;;;;;;4984671;28;20037;-74
2021/08/16 04:37:00;;;;;;;7.82;2.50;;;18.30;77.50;;;;;;4990394;28;20517;-74
2021/08/16 04:39:26;;;;;;;6.43;2.10;;;18.30;76.80;;;;;;4997973;28;20114;-74
2021/08/16 04:41:51;;;;;;;7.95;2.83;;;18.20;77.20;;;;;;4988792;28;20140;-73
2021/08/16 04:44:17;;;;;;;9.02;3.53;;;18.20;76.80;;;;;;4988191;28;20023;-74
2021/08/16 04:46:43;;;;;;;6.47;2.42;;;18.20;77.10;;;;;;4991985;28;20381;-73
2021/08/16 04:49:08;;;;;;;7.65;2.92;;;18.20;77.10;;;;;;4995057;28;20126;-74
2021/08/16 04:51:34;;;;;;;8.52;2.70;;;18.20;77.10;;;;;;4985632;28;20092;-73
2021/08/16 04:53:59;;;;;;;8.88;3.50;;;18.20;77.10;;;;;;4991647;28;20030;-74
2021/08/16 04:56:26;;;;;;;9.68;2.67;;;18.20;77.50;;;;;;4985447;28;20614;-73
2021/08/16 04:58:52;;;;;;;7.20;2.50;;;18.20;77.50;;;;;;4992616;28;20038;-74
2021/08/16 05:01:17;;;;;;;6.57;2.80;;;18.20;77.40;;;;;;4986717;28;20034;-74
2021/08/16 05:03:43;;;;;;;8.23;2.92;;;18.30;77.30;;;;;;4991171;28;20569;-74
2021/08/16 05:06:08;;;;;;;9.60;2.83;;;18.30;77.30;;;;;;4977635;28;20024;-74
2021/08/16 05:08:35;;;;;;;6.90;2.95;;;18.20;77.30;;;;;;4998684;28;20042;-75
2021/08/16 05:11:02;;;;;;;7.00;2.80;;;18.30;77.40;;;;;;4991105;28;20027;-76
2021/08/16 05:13:27;;;;;;;6.22;2.65;;;18.30;77.20;;;;;;4988812;28;20027;-76
2021/08/16 05:15:53;;;;;;;7.15;3.20;;;18.30;77.20;;;;;;4988339;28;20080;-76
2021/08/16 05:18:18;;;;;;;6.03;2.55;;;18.40;77.20;;;;;;4985818;28;20092;-76
2021/08/16 05:20:44;;;;;;;5.88;2.33;;;18.30;77.00;;;;;;4991691;28;20026;-76
2021/08/16 05:23:10;;;;;;;8.25;3.60;;;18.40;76.80;;;;;;4988689;28;20512;-75
2021/08/16 05:25:35;;;;;;;9.93;3.28;;;18.40;77.00;;;;;;4990892;28;20548;-74
2021/08/16 05:28:01;;;;;;;7.82;2.97;;;18.40;77.20;;;;;;4987997;28;20054;-74
2021/08/16 05:30:27;;;;;;;7.18;2.42;;;18.40;77.20;;;;;;4982011;28;20023;-75
2021/08/16 05:32:52;;;;;;;9.88;3.40;;;18.40;77.20;;;;;;4983873;28;20035;-76
2021/08/16 05:35:18;;;;;;;7.25;3.40;;;18.40;77.20;;;;;;4989054;28;20035;-75
2021/08/16 05:37:43;;;;;;;6.45;3.03;;;18.40;77.20;;;;;;4987732;28;20030;-75
2021/08/16 05:40:10;;;;;;;6.88;3.00;;;18.30;77.20;;;;;;4985391;28;20026;-74
2021/08/16 05:42:35;;;;;;;8.00;3.08;;;18.40;77.10;;;;;;4979802;28;20540;-74
2021/08/16 05:45:04;;;;;;;7.63;3.55;;;18.40;77.30;;;;;;4990669;28;20023;-75
2021/08/16 05:47:31;;;;;;;9.68;4.20;;;18.40;77.20;;;;;;4983301;28;20022;-75
2021/08/16 05:49:56;;;;;;;8.50;3.97;;;18.40;77.30;;;;;;4990867;28;20031;-75
2021/08/16 05:52:22;;;;;;;9.88;4.55;;;18.40;77.40;;;;;;4988704;28;20181;-75
2021/08/16 05:54:47;;;;;;;12.00;4.60;;;18.40;77.50;;;;;;4986231;28;20038;-74
2021/08/16 05:57:13;;;;;;;9.93;3.83;;;18.40;77.80;;;;;;4982209;28;20045;-74
2021/08/16 05:59:38;;;;;;;8.90;4.35;;;18.40;77.80;;;;;;4990135;28;20027;-74
2021/08/16 06:02:04;;;;;;;10.23;5.45;;;18.40;77.80;;;;;;4985813;28;20072;-75
2021/08/16 06:04:29;;;;;;;11.82;5.40;;;18.30;78.00;;;;;;4986126;28;20022;-75
2021/08/16 06:06:55;;;;;;;8.02;3.70;;;18.30;78.10;;;;;;4989487;28;20032;-75
2021/08/16 06:09:20;;;;;;;8.73;4.50;;;18.30;78.10;;;;;;4981905;28;20037;-75
2021/08/16 06:11:46;;;;;;;8.25;4.80;;;18.30;78.10;;;;;;4990746;28;20022;-75
2021/08/16 06:14:12;;;;;;;8.68;5.07;;;18.30;78.00;;;;;;4986918;28;20052;-74
2021/08/16 06:16:38;;;;;;;11.75;5.93;;;18.40;78.10;;;;;;4985722;28;20036;-73
2021/08/16 06:19:03;;;;;;;9.43;5.13;;;18.30;78.40;;;;;;5000133;28;20609;-75
2021/08/16 06:21:29;;;;;;;8.88;4.65;;;18.30;78.30;;;;;;4982786;28;20022;-77
2021/08/16 06:23:55;;;;;;;10.73;5.22;;;18.30;78.20;;;;;;4986909;28;20026;-75
2021/08/16 06:26:20;;;;;;;10.80;4.93;;;18.40;78.30;;;;;;4981033;28;20053;-75
2021/08/16 06:28:46;;;;;;;6.82;4.60;;;18.40;78.40;;;;;;4986037;28;20022;-75
2021/08/16 06:31:11;;;;;;;13.20;6.30;;;18.40;78.40;;;;;;4988384;28;20566;-74
2021/08/16 06:33:41;;;;;;;10.02;6.25;;;18.40;78.50;;;;;;4989424;28;20023;-74
2021/08/16 06:36:07;;;;;;;11.73;6.35;;;18.30;78.80;;;;;;4983222;28;20232;-75
2021/08/16 06:38:33;;;;;;;10.95;6.90;;;18.30;79.10;;;;;;4986231;28;20113;-76
2021/08/16 06:41:01;;;;;;;12.68;6.70;;;18.30;79.60;;;;;;4983011;28;20106;-76
2021/08/16 06:43:30;;;;;;;8.25;5.75;;;18.20;79.80;;;;;;4985242;28;20566;-77
2021/08/16 06:45:56;;;;;;;9.88;7.55;;;18.20;80.20;;;;;;4981142;28;20033;-77
2021/08/16 06:48:22;;;;;;;9.60;5.80;;;18.20;80.30;;;;;;4981762;28;20026;-76
2021/08/16 06:50:47;;;;;;;8.93;6.18;;;18.10;80.30;;;;;;4983308;28;20053;-76
2021/08/16 06:53:14;;;;;;;10.50;6.00;;;18.10;80.60;;;;;;4988179;28;20535;-76
2021/08/16 06:55:40;;;;;;;9.05;6.05;;;18.10;80.80;;;;;;4985848;28;20077;-77
2021/08/16 06:58:06;;;;;;;8.75;5.40;;;18.00;80.90;;;;;;4985292;28;20385;-76
2021/08/16 07:00:32;;;;;;;9.63;6.75;;;18.00;81.10;;;;;;4984968;28;20034;-76
2021/08/16 07:03:00;;;;;;;6.85;4.70;;;18.00;81.50;;;;;;4987512;28;20034;-77
2021/08/16 07:05:26;;;;;;;5.70;3.90;;;18.00;81.60;;;;;;4986066;28;20025;-75
2021/08/16 07:07:52;;;;;;;6.47;4.20;;;18.00;81.50;;;;;;4984199;28;20058;-76
2021/08/16 07:10:21;;;;;;;4.95;3.90;;;18.00;81.50;;;;;;4988761;28;20559;-76
2021/08/16 07:12:47;;;;;;;4.70;3.22;;;18.00;81.60;;;;;;4984181;28;20034;-76
2021/08/16 07:15:13;;;;;;;4.72;3.20;;;18.00;81.60;;;;;;4985617;28;20469;-76
2021/08/16 07:17:39;;;;;;;4.43;3.72;;;18.00;81.80;;;;;;4983525;28;20041;-76
2021/08/16 07:20:06;;;;;;;3.88;2.70;;;18.00;82.20;;;;;;4987744;28;20022;-74
2021/08/16 07:22:31;;;;;;;4.47;2.75;;;18.10;82.10;;;;;;4984826;28;20169;-75
2021/08/16 07:24:57;;;;;;;5.13;3.45;;;18.10;82.00;;;;;;4992370;28;20026;-76
2021/08/16 07:27:22;;;;;;;5.18;3.38;;;18.10;82.00;;;;;;4982480;28;20027;-76
2021/08/16 07:29:48;;;;;;;3.70;2.40;;;18.20;82.00;;;;;;4987939;28;20177;-77
2021/08/16 07:32:14;;;;;;;3.55;2.47;;;18.20;81.80;;;;;;4984978;28;20034;-77
2021/08/16 07:34:39;;;;;;;2.60;2.10;;;18.20;81.70;;;;;;4988208;28;20030;-77
2021/08/16 07:37:08;;;;;;;3.90;2.78;;;18.20;81.70;;;;;;4993011;28;20414;-75
2021/08/16 07:39:33;;;;;;;4.13;2.05;;;18.20;82.10;;;;;;4992065;28;20064;-76
2021/08/16 07:41:59;;;;;;;2.55;1.40;;;18.10;82.30;;;;;;4993571;28;20038;-76
2021/08/16 07:44:24;;;;;;;2.50;1.60;;;18.10;82.20;;;;;;4990830;28;20050;-76
2021/08/16 07:46:50;;;;;;;2.72;1.50;;;18.10;82.30;;;;;;4990181;28;21266;-76
2021/08/16 07:49:16;;;;;;;2.72;1.60;;;18.00;82.10;;;;;;5006830;28;20033;-76
2021/08/16 07:51:42;;;;;;;3.10;1.45;;;18.00;82.00;;;;;;4989307;28;20458;-77
2021/08/16 07:54:07;;;;;;;3.40;1.48;;;18.10;81.80;;;;;;4983571;28;20022;-76
2021/08/16 07:56:33;;;;;;;3.35;1.42;;;18.10;81.60;;;;;;4988964;28;20065;-77
2021/08/16 07:58:58;;;;;;;2.92;1.20;;;18.10;81.60;;;;;;4990672;28;20082;-76
2021/08/16 08:01:24;;;;;;;3.80;1.40;;;18.10;81.50;;;;;;4985302;28;20105;-76
2021/08/16 08:03:50;;;;;;;3.20;1.60;;;18.10;81.30;;;;;;5006159;28;20518;-75
2021/08/16 08:06:17;;;;;;;3.35;1.40;;;18.20;81.30;;;;;;4998989;28;20038;-74
2021/08/16 08:08:44;;;;;;;3.00;1.40;;;18.20;81.80;;;;;;4996895;28;20050;-74
2021/08/16 08:11:09;;;;;;;3.88;1.58;;;18.20;81.00;;;;;;4995297;28;20599;-74
2021/08/16 08:13:35;;;;;;;3.08;1.70;;;18.10;80.80;;;;;;4997642;28;20105;-76
2021/08/16 08:16:00;;;;;;;5.22;1.73;;;18.10;81.00;;;;;;4996946;28;20056;-76
2021/08/16 08:18:26;;;;;;;2.70;1.33;;;18.00;81.00;;;;;;4993513;28;20456;-76
2021/08/16 08:20:51;;;;;;;3.22;1.75;;;17.90;81.10;;;;;;4998728;28;20727;-76
2021/08/16 08:23:17;;;;;;;3.13;1.70;;;17.80;81.10;;;;;;4995247;28;20234;-81
2021/08/16 08:25:43;;;;;;;3.38;1.63;;;17.70;81.30;;;;;;4996882;28;20026;-82
2021/08/16 08:28:13;;;;;;;3.58;1.63;;;17.60;81.20;;;;;;4995065;28;20027;-84
2021/08/16 08:30:39;;;;;;;4.32;1.70;;;17.50;81.10;;;;;;4996341;28;20032;-84
2021/08/16 08:33:05;;;;;;;4.60;2.08;;;17.50;81.10;;;;;;4995799;28;20038;-84
2021/08/16 08:35:30;;;;;;;2.05;1.20;;;17.40;80.80;;;;;;4999493;28;20038;-82
2021/08/16 08:37:56;;;;;;;3.35;1.73;;;17.40;80.70;;;;;;4996379;28;20038;-83
2021/08/16 08:40:22;;;;;;;5.15;1.80;;;17.40;80.50;;;;;;5000830;28;20034;-82
2021/08/16 08:42:53;;;;;;;2.33;1.50;;;17.40;80.30;;;;;;4988775;28;20477;-82
2021/08/16 08:45:20;;;;;;;3.05;1.38;;;17.40;80.30;;;;;;4993140;28;20070;-81
2021/08/16 08:47:47;;;;;;;3.30;2.03;;;17.60;80.20;;;;;;4993448;28;20022;-82
2021/08/16 08:50:15;;;;;;;2.90;1.50;;;17.70;79.80;;;;;;4995070;28;21902;-81
2021/08/16 08:52:41;;;;;;;3.63;1.60;;;17.80;79.50;;;;;;4989599;28;20105;-84
2021/08/16 08:55:07;;;;;;;3.47;1.10;;;17.80;79.30;;;;;;4989521;28;20031;-84
2021/08/16 08:57:37;;;;;;;1.92;1.33;;;17.90;79.10;;;;;;4992852;28;20034;-84
2021/08/16 09:00:04;;;;;;;2.38;1.35;;;18.00;79.00;;;;;;4994521;28;20018;-84
2021/08/16 09:02:30;;;;;;;2.25;1.10;;;18.20;78.90;;;;;;4992623;28;20644;-83
2021/08/16 09:04:56;;;;;;;2.72;1.52;;;18.30;78.50;;;;;;4987754;28;20080;-82
2021/08/16 09:07:35;;;;;;;3.05;1.52;;;18.40;78.20;;;;;;4990113;28;20169;-82
2021/08/16 09:10:02;;;;;;;2.95;1.40;;;18.40;78.20;;;;;;4990119;28;20555;-83
2021/08/16 09:12:33;;;;;;;3.65;1.60;;;18.50;77.90;;;;;;4995045;28;20022;-83
2021/08/16 09:14:59;;;;;;;3.78;1.73;;;18.50;77.80;;;;;;4993584;28;20045;-82
2021/08/16 09:17:32;;;;;;;3.35;1.65;;;18.50;77.50;;;;;;4991356;28;20477;-81
2021/08/16 09:19:59;;;;;;;2.50;1.20;;;18.60;77.50;;;;;;4984894;28;20473;-82
2021/08/16 09:22:28;;;;;;;4.32;1.83;;;18.60;77.40;;;;;;4993160;28;20080;-81
2021/08/16 09:25:08;;;;;;;4.22;1.67;;;18.70;77.50;;;;;;4993365;28;20116;-81
2021/08/16 09:27:46;;;;;;;5.10;2.00;;;18.80;77.30;;;;;;4997567;28;20026;-82
2021/08/16 09:30:13;;;;;;;3.83;1.50;;;18.80;77.20;;;;;;4996050;28;20030;-82
2021/08/16 09:32:40;;;;;;;4.22;1.90;;;18.90;77.00;;;;;;4997987;28;20033;-82
2021/08/16 09:35:11;;;;;;;3.20;1.50;;;18.80;76.80;;;;;;4996263;28;20377;-82
2021/08/16 09:37:36;;;;;;;2.80;1.77;;;18.80;76.80;;;;;;4995605;28;20034;-81
2021/08/16 09:40:11;;;;;;;3.60;1.70;;;18.70;77.40;;;;;;4993556;28;20153;-81
2021/08/16 09:42:42;;;;;;;3.78;1.52;;;18.70;77.30;;;;;;4992936;28;20021;-82
2021/08/16 09:45:08;;;;;;;2.85;1.30;;;18.70;76.60;;;;;;4993353;28;20092;-82
2021/08/16 09:47:41;;;;;;;2.97;1.40;;;18.70;76.50;;;;;;4992874;28;20105;-83
2021/08/16 09:50:07;;;;;;;5.38;1.75;;;18.70;76.30;;;;;;4984243;28;20404;-84
2021/08/16 09:52:33;;;;;;;2.92;1.63;;;18.70;76.30;;;;;;4997237;28;20022;-82
2021/08/16 09:54:59;;;;;;;4.43;1.95;;;18.70;76.30;;;;;;4991645;28;20030;-82
2021/08/16 09:57:25;;;;;;;2.70;1.83;;;18.60;76.80;;;;;;4988868;28;20037;-81
2021/08/16 09:59:50;;;;;;;3.65;1.40;;;18.60;76.20;;;;;;5000132;28;20031;-82
2021/08/16 10:02:16;;;;;;;3.13;1.67;;;18.70;76.20;;;;;;4992286;28;20381;-82
2021/08/16 10:04:42;;;;;;;4.53;2.20;;;18.80;76.00;;;;;;5002517;28;20026;-82
2021/08/16 10:07:10;;;;;;;5.07;1.95;;;18.90;75.50;;;;;;4992736;28;20046;-82
2021/08/16 10:09:36;;;;;;;4.15;1.90;;;18.90;75.40;;;;;;4992802;28;20073;-80
2021/08/16 10:12:04;;;;;;;5.72;2.38;;;19.00;75.10;;;;;;4999137;28;20050;-82
2021/08/16 10:14:34;;;;;;;4.72;2.17;;;19.00;74.60;;;;;;4983400;28;20026;-82
2021/08/16 10:17:02;;;;;;;3.53;1.73;;;19.00;74.60;;;;;;4993236;28;20053;-81
2021/08/16 10:19:35;;;;;;;5.05;1.70;;;19.10;74.60;;;;;;4991526;28;20040;-81
2021/08/16 10:22:02;;;;;;;4.68;2.15;;;19.30;74.50;;;;;;4993679;28;20524;-81
2021/08/16 10:24:29;;;;;;;4.72;2.47;;;19.50;73.80;;;;;;4997862;28;20026;-81
2021/08/16 10:27:00;;;;;;;5.45;2.90;;;19.70;73.10;;;;;;4991478;28;20106;-81
2021/08/16 10:29:28;;;;;;;6.85;2.70;;;19.80;73.00;;;;;;4983775;28;20019;-82
2021/08/16 10:31:54;;;;;;;5.15;2.50;;;20.00;71.60;;;;;;4987928;28;20431;-82
2021/08/16 10:34:31;;;;;;;4.15;2.28;;;20.10;71.30;;;;;;4999545;28;20385;-81
2021/08/16 10:37:08;;;;;;;4.82;2.50;;;20.20;70.20;;;;;;4991824;28;20041;-82
2021/08/16 10:39:45;;;;;;;5.93;2.70;;;20.40;69.90;;;;;;4996163;28;20033;-81
2021/08/16 10:42:14;;;;;;;5.45;2.70;;;20.50;69.40;;;;;;4989735;28;20034;-82
2021/08/16 10:44:54;;;;;;;7.40;2.80;;;20.60;68.80;;;;;;5000481;28;20101;-82
2021/08/16 10:47:31;;;;;;;4.32;2.42;;;20.70;67.70;;;;;;4990643;28;20038;-81
2021/08/16 10:50:10;;;;;;;4.90;2.50;;;20.70;66.90;;;;;;4986753;28;20038;-81
2021/08/16 10:52:38;;;;;;;5.63;2.80;;;20.70;66.40;;;;;;4986726;28;20084;-80
2021/08/16 10:55:12;;;;;;;4.13;2.25;;;20.70;66.40;;;;;;4999662;28;20034;-81
2021/08/16 10:57:40;;;;;;;4.25;2.20;;;20.70;66.30;;;;;;4989436;28;20038;-81
2021/08/16 11:00:08;;;;;;;5.00;2.72;;;20.60;66.00;;;;;;4987326;28;20019;-81
2021/08/16 11:02:33;;;;;;;6.28;2.65;;;20.50;65.90;;;;;;4987280;28;20022;-81
2021/08/16 11:05:00;;;;;;;5.15;2.45;;;20.50;65.90;;;;;;4988436;28;20533;-83
2021/08/16 11:07:26;;;;;;;6.80;3.00;;;20.40;66.00;;;;;;5001996;28;20031;-82
2021/08/16 11:09:57;;;;;;;4.65;2.40;;;20.30;65.90;;;;;;4991624;28;20034;-81
2021/08/16 11:12:32;;;;;;;3.97;2.30;;;20.30;65.50;;;;;;4989187;28;20023;-82
2021/08/16 11:14:57;;;;;;;3.20;2.10;;;20.20;65.00;;;;;;4986649;28;20023;-81
2021/08/16 11:17:28;;;;;;;5.50;2.28;;;20.30;65.10;;;;;;4992228;28;20048;-82
2021/08/16 11:19:57;;;;;;;3.70;2.20;;;20.30;64.90;;;;;;4980911;28;20084;-81
2021/08/16 11:22:24;;;;;;;4.85;2.22;;;20.10;64.70;;;;;;4991134;28;20065;-80
2021/08/16 11:24:50;;;;;;;3.05;2.30;;;20.00;65.20;;;;;;4989796;28;20031;-80
2021/08/16 11:27:28;;;;;;;4.40;2.30;;;19.70;65.50;;;;;;4987377;28;20034;-79
2021/08/16 11:30:00;;;;;;;3.97;2.17;;;19.50;66.80;;;;;;4988352;28;20594;-80
2021/08/16 11:32:28;;;;;;;3.20;1.90;;;19.40;66.90;;;;;;4991770;28;20045;-79
2021/08/16 11:34:55;;;;;;;3.42;1.80;;;19.20;67.10;;;;;;4987498;28;20069;-79
2021/08/16 11:37:26;;;;;;;4.43;2.00;;;18.90;67.10;;;;;;4981714;28;20030;-79
2021/08/16 11:39:53;;;;;;;3.08;1.83;;;18.60;67.50;;;;;;4984770;28;20030;-79
2021/08/16 11:42:23;;;;;;;2.53;1.73;;;18.30;68.90;;;;;;4991793;28;20113;-78
2021/08/16 11:45:00;;;;;;;3.10;1.50;;;18.00;69.20;;;;;;4982319;28;20096;-78
2021/08/16 11:47:31;;;;;;;2.55;1.42;;;17.90;70.00;;;;;;4982992;28;20358;-80
2021/08/16 11:49:59;;;;;;;2.65;1.35;;;17.90;70.40;;;;;;4985053;28;20034;-79
2021/08/16 11:52:24;;;;;;;3.00;1.88;;;17.90;70.60;;;;;;4987266;28;20019;-80
2021/08/16 11:54:51;;;;;;;3.80;1.95;;;18.00;71.10;;;;;;4983030;28;20154;-80
2021/08/16 11:57:19;;;;;;;3.33;1.70;;;18.10;71.10;;;;;;4982202;28;20039;-80
2021/08/16 11:59:49;;;;;;;3.08;1.80;;;18.10;71.10;;;;;;4989609;28;20386;-79
2021/08/16 12:02:15;;;;;;;3.47;1.70;;;18.10;71.10;;;;;;4986512;28;20041;-82
2021/08/16 12:04:41;;;;;;;2.40;1.67;;;18.00;70.90;;;;;;4985673;28;20394;-79
2021/08/16 12:07:07;;;;;;;4.85;1.70;;;17.90;70.80;;;;;;4987447;28;20050;-79
2021/08/16 12:09:34;;;;;;;3.45;1.70;;;17.90;70.90;;;;;;4983752;28;20070;-78
2021/08/16 12:12:01;;;;;;;3.90;1.85;;;17.80;71.00;;;;;;4983929;28;20041;-81
2021/08/16 12:14:30;;;;;;;4.88;1.95;;;17.70;71.40;;;;;;4981870;28;20022;-79
2021/08/16 12:16:57;;;;;;;4.05;1.83;;;17.50;71.40;;;;;;4986584;28;20045;-79
2021/08/16 12:19:23;;;;;;;4.72;1.80;;;17.50;71.80;;;;;;4985863;28;20057;-79
2021/08/16 12:22:10;;;;;;;3.50;1.63;;;17.40;71.80;;;;;;4982231;28;20404;-78
2021/08/16 12:24:40;;;;;;;4.30;1.58;;;17.40;72.60;;;;;;4973750;28;20496;-79
2021/08/16 12:27:10;;;;;;;5.32;1.80;;;17.40;72.20;;;;;;4983131;28;20030;-79
2021/08/16 12:29:43;;;;;;;2.83;1.70;;;17.50;72.10;;;;;;4983942;28;20033;-78
2021/08/16 12:32:20;;;;;;;3.25;1.80;;;17.60;72.00;;;;;;4985341;28;20061;-78
2021/08/16 12:34:46;;;;;;;4.95;2.22;;;17.60;71.90;;;;;;4982124;28;20037;-78
2021/08/16 12:37:32;;;;;;;4.45;1.75;;;17.60;72.00;;;;;;4980786;28;20537;-80
2021/08/16 12:40:17;;;;;;;4.53;1.70;;;17.60;71.80;;;;;;4984292;28;20061;-80
2021/08/16 12:42:45;;;;;;;3.80;1.70;;;17.60;71.80;;;;;;4984517;28;20433;-80
2021/08/16 12:45:14;;;;;;;3.47;1.50;;;17.60;71.80;;;;;;4985503;28;20042;-78